Time;durP1;ratioP1;P1;durP2;ratioP2;P2;SDS_P1;SDS_P2;PMS_P1;PMS_P2;Temp;Humidity;BMP_temperature;BMP_pressure;BME280_temperature;BME280_humidity;BME280_pressure;Samples;Min_cycle;Max_cycle;Signal;HPM_P1;HPM_P2
2024/02/09 00:02:23;;;;;;;11.77;8.93;;;;;;;;;;5015940;28;20175;-55
2024/02/09 00:04:49;;;;;;;8.27;7.47;;;;;;;;;;5022661;28;20158;-55
2024/02/09 00:07:15;;;;;;;8.77;6.93;;;;;;;;;;5027875;28;20285;-55
2024/02/09 00:09:42;;;;;;;10.90;5.70;;;;;;;;;;5024979;28;20264;-55
2024/02/09 00:12:09;;;;;;;6.67;5.60;;;;;;;;;;5021066;28;20680;-55
2024/02/09 00:14:35;;;;;;;6.73;6.03;;;;;;;;;;5022899;28;20779;-55
2024/02/09 00:17:01;;;;;;;10.17;6.30;;;;;;;;;;5022645;28;20671;-55
2024/02/09 00:19:27;;;;;;;8.03;5.63;;;;;;;;;;5019044;28;20253;-55
2024/02/09 00:21:53;;;;;;;6.03;4.10;;;;;;;;;;5025054;28;20190;-55
2024/02/09 00:24:19;;;;;;;6.97;5.80;;;;;;;;;;5023957;28;20622;-56
2024/02/09 00:26:45;;;;;;;6.97;4.33;;;;;;;;;;5017500;28;20314;-55
2024/02/09 00:29:11;;;;;;;7.67;4.47;;;;;;;;;;5026011;28;20189;-55
2024/02/09 00:31:37;;;;;;;9.80;9.07;;;;;;;;;;5026038;28;20170;-55
2024/02/09 00:34:03;;;;;;;8.20;7.40;;;;;;;;;;5022726;28;20179;-55
2024/02/09 00:36:31;;;;;;;13.33;12.13;;;;;;;;;;5021045;28;20724;-55
2024/02/09 00:38:58;;;;;;;10.47;9.37;;;;;;;;;;5025351;28;20194;-55
2024/02/09 00:41:24;;;;;;;12.93;11.80;;;;;;;;;;5026587;28;20268;-55
2024/02/09 00:43:50;;;;;;;8.53;6.60;;;;;;;;;;5025352;28;20213;-55
2024/02/09 00:46:16;;;;;;;13.00;11.23;;;;;;;;;;5019326;28;20202;-55
2024/02/09 00:48:42;;;;;;;11.20;9.90;;;;;;;;;;5025430;28;20178;-55
2024/02/09 00:51:08;;;;;;;12.83;11.60;;;;;;;;;;5027594;28;20521;-55
2024/02/09 00:53:34;;;;;;;8.90;5.97;;;;;;;;;;5018404;28;20215;-55
2024/02/09 00:56:00;;;;;;;8.63;3.90;;;;;;;;;;5025801;28;20243;-55
2024/02/09 00:58:26;;;;;;;9.73;5.90;;;;;;;;;;5024467;28;20181;-55
2024/02/09 01:00:52;;;;;;;8.93;8.13;;;;;;;;;;5027819;28;20185;-55
2024/02/09 01:03:20;;;;;;;14.33;10.20;;;;;;;;;;5023831;28;20737;-55
2024/02/09 01:05:46;;;;;;;9.43;8.63;;;;;;;;;;5025673;28;20206;-55
2024/02/09 01:08:12;;;;;;;9.77;8.77;;;;;;;;;;5025368;28;20268;-55
2024/02/09 01:10:39;;;;;;;10.33;6.87;;;;;;;;;;5026914;28;20561;-55
2024/02/09 02:46:15;;;;;;;10.27;7.80;;;;;;;;;;5023874;28;20676;-55
2024/02/09 03:05:14;;;;;;;11.50;10.40;;;;;;;;;;5025655;28;20189;-55
2024/02/09 03:07:41;;;;;;;10.23;5.73;;;;;;;;;;5014842;28;20887;-55
2024/02/09 03:10:07;;;;;;;7.17;4.83;;;;;;;;;;5016826;28;20401;-55
2024/02/09 03:12:33;;;;;;;5.33;4.13;;;;;;;;;;5025054;28;20895;-55
2024/02/09 03:14:59;;;;;;;7.00;5.37;;;;;;;;;;5023816;28;20171;-55
2024/02/09 03:17:26;;;;;;;15.57;5.57;;;;;;;;;;5021172;28;20750;-55
2024/02/09 03:19:54;;;;;;;8.70;5.40;;;;;;;;;;5026271;28;20181;-55
2024/02/09 03:22:20;;;;;;;13.70;10.80;;;;;;;;;;5023081;28;20217;-55
2024/02/09 03:24:46;;;;;;;6.83;4.10;;;;;;;;;;5027095;28;20170;-55
2024/02/09 03:27:12;;;;;;;7.87;4.70;;;;;;;;;;5015976;28;20336;-55
2024/02/09 03:29:39;;;;;;;5.97;3.87;;;;;;;;;;5024124;28;20219;-55
2024/02/09 03:32:05;;;;;;;8.13;5.93;;;;;;;;;;5014280;28;20177;-55
2024/02/09 03:34:31;;;;;;;14.83;13.43;;;;;;;;;;5023767;28;20174;-55
2024/02/09 03:36:58;;;;;;;10.17;9.17;;;;;;;;;;5024739;28;20181;-55
2024/02/09 03:39:24;;;;;;;11.83;5.13;;;;;;;;;;5025671;28;20593;-55
2024/02/09 03:41:50;;;;;;;7.90;4.33;;;;;;;;;;5019068;28;20591;-56
2024/02/09 03:44:16;;;;;;;7.33;4.43;;;;;;;;;;5025151;28;20204;-55
2024/02/09 03:46:42;;;;;;;11.20;5.77;;;;;;;;;;5024336;28;20656;-55
2024/02/09 03:49:11;;;;;;;9.73;6.27;;;;;;;;;;5016095;28;20661;-55
2024/02/09 03:51:37;;;;;;;11.47;10.40;;;;;;;;;;5024558;28;20181;-56
2024/02/09 03:54:03;;;;;;;9.70;8.93;;;;;;;;;;5021939;28;20178;-55
2024/02/09 03:56:30;;;;;;;6.97;5.10;;;;;;;;;;5026050;28;20185;-55
2024/02/09 03:58:58;;;;;;;9.50;8.70;;;;;;;;;;5025177;28;20181;-55
2024/02/09 04:01:24;;;;;;;12.27;10.87;;;;;;;;;;5020809;28;20179;-55
2024/02/09 04:03:50;;;;;;;10.03;5.40;;;;;;;;;;5025722;28;20169;-55
2024/02/09 04:06:16;;;;;;;10.43;9.10;;;;;;;;;;5029636;28;20210;-55
2024/02/09 04:08:43;;;;;;;8.83;7.53;;;;;;;;;;5020155;28;20210;-55
2024/02/09 04:11:17;;;;;;;12.50;11.27;;;;;;;;;;5025520;28;20181;-55
2024/02/09 04:13:43;;;;;;;13.00;11.83;;;;;;;;;;5021640;28;20178;-55
2024/02/09 04:16:09;;;;;;;6.50;4.30;;;;;;;;;;5028178;28;20181;-55
2024/02/09 04:18:36;;;;;;;5.50;4.20;;;;;;;;;;5032228;28;20217;-55
2024/02/09 04:21:02;;;;;;;5.90;4.30;;;;;;;;;;5021715;28;20174;-55
2024/02/09 04:23:30;;;;;;;7.17;5.20;;;;;;;;;;5027724;28;20178;-55
2024/02/09 04:25:59;;;;;;;9.67;4.37;;;;;;;;;;5030296;28;20613;-55
2024/02/09 04:28:25;;;;;;;7.83;3.90;;;;;;;;;;5028613;28;20169;-55
2024/02/09 04:30:51;;;;;;;7.57;6.87;;;;;;;;;;5028449;28;20178;-59
2024/02/09 04:33:17;;;;;;;8.50;5.63;;;;;;;;;;5027785;28;20557;-59
2024/02/09 04:35:43;;;;;;;6.97;5.60;;;;;;;;;;5020686;28;20183;-59
2024/02/09 04:38:09;;;;;;;8.13;7.30;;;;;;;;;;5028551;28;20178;-59
2024/02/09 04:40:36;;;;;;;7.20;5.67;;;;;;;;;;5028617;28;20182;-60
2024/02/09 04:43:04;;;;;;;12.90;10.50;;;;;;;;;;5021825;28;20652;-59
2024/02/09 04:45:30;;;;;;;9.83;8.73;;;;;;;;;;5036040;28;20201;-60
2024/02/09 04:47:57;;;;;;;7.47;5.30;;;;;;;;;;5023740;28;20170;-59
2024/02/09 04:50:23;;;;;;;8.30;6.70;;;;;;;;;;5029083;28;20178;-59
2024/02/09 04:52:52;;;;;;;6.77;6.23;;;;;;;;;;5027184;28;20619;-57
2024/02/09 04:55:18;;;;;;;10.43;5.80;;;;;;;;;;5025423;28;20603;-59
2024/02/09 04:57:44;;;;;;;7.00;6.00;;;;;;;;;;5025540;28;20169;-59
2024/02/09 05:00:11;;;;;;;12.50;9.53;;;;;;;;;;5026733;28;20190;-59
2024/02/09 05:02:38;;;;;;;11.70;10.77;;;;;;;;;;5029318;28;20200;-58
2024/02/09 05:05:07;;;;;;;9.70;8.90;;;;;;;;;;5025232;28;20175;-59
2024/02/09 05:07:33;;;;;;;6.23;5.63;;;;;;;;;;5024435;28;20618;-59
2024/02/09 05:09:59;;;;;;;9.30;6.93;;;;;;;;;;5027005;28;20636;-61
2024/02/09 05:12:25;;;;;;;9.33;7.73;;;;;;;;;;5029221;28;20257;-60
2024/02/09 05:14:54;;;;;;;5.43;4.93;;;;;;;;;;5026753;28;20194;-58
2024/02/09 05:17:22;;;;;;;4.57;3.83;;;;;;;;;;5025524;28;20513;-59
2024/02/09 05:19:48;;;;;;;4.87;4.37;;;;;;;;;;5025308;28;20210;-60
2024/02/09 05:22:14;;;;;;;8.27;3.90;;;;;;;;;;5021400;28;20178;-60
2024/02/09 05:24:40;;;;;;;7.83;6.00;;;;;;;;;;5024983;28;20289;-59
2024/02/09 05:27:06;;;;;;;6.93;6.03;;;;;;;;;;5027296;28;20201;-59
2024/02/09 05:29:32;;;;;;;10.90;10.00;;;;;;;;;;5021063;28;20232;-60
2024/02/09 05:31:58;;;;;;;4.80;3.63;;;;;;;;;;5028684;28;20159;-59
2024/02/09 05:34:25;;;;;;;5.00;4.00;;;;;;;;;;5027265;28;20192;-58
2024/02/09 05:36:53;;;;;;;7.97;7.17;;;;;;;;;;5025581;28;20525;-60
2024/02/09 05:39:19;;;;;;;11.83;10.83;;;;;;;;;;5024832;28;20615;-60
2024/02/09 05:41:45;;;;;;;6.20;5.57;;;;;;;;;;5027854;28;20186;-55
2024/02/09 05:44:12;;;;;;;8.10;7.40;;;;;;;;;;5027034;28;20197;-56
2024/02/09 05:46:38;;;;;;;6.00;5.03;;;;;;;;;;5025851;28;20267;-55
2024/02/09 05:49:06;;;;;;;5.67;5.17;;;;;;;;;;5019001;28;20182;-56
2024/02/09 05:51:33;;;;;;;5.57;5.03;;;;;;;;;;5019927;28;20178;-56
2024/02/09 05:53:59;;;;;;;3.33;2.73;;;;;;;;;;5016666;28;20177;-56
2024/02/09 05:56:26;;;;;;;13.17;12.07;;;;;;;;;;5020539;28;20260;-56
2024/02/09 05:58:52;;;;;;;10.43;9.73;;;;;;;;;;5023265;28;20516;-56
2024/02/09 06:01:19;;;;;;;5.28;4.78;;;;;;;;;;5021442;28;20777;-55
2024/02/09 06:03:46;;;;;;;11.87;10.90;;;;;;;;;;5023216;28;20284;-55
2024/02/09 06:06:20;;;;;;;7.40;6.03;;;;;;;;;;5021804;28;20520;-55
2024/02/09 06:08:47;;;;;;;12.10;11.20;;;;;;;;;;5024961;28;20488;-55
2024/02/09 06:11:15;;;;;;;10.47;9.80;;;;;;;;;;5020573;28;20174;-55
2024/02/09 06:13:44;;;;;;;5.97;4.40;;;;;;;;;;5027491;28;20170;-55
2024/02/09 06:16:11;;;;;;;7.53;4.60;;;;;;;;;;5019775;28;20657;-55
2024/02/09 06:18:37;;;;;;;5.93;3.20;;;;;;;;;;5025200;28;20308;-55
2024/02/09 06:21:04;;;;;;;3.70;3.37;;;;;;;;;;5021968;28;20628;-56
2024/02/09 06:23:32;;;;;;;5.40;3.37;;;;;;;;;;5020194;28;20178;-55
2024/02/09 06:25:59;;;;;;;13.30;12.60;;;;;;;;;;5027952;28;20233;-55
2024/02/09 06:28:25;;;;;;;7.23;6.53;;;;;;;;;;5030189;28;20545;-56
2024/02/09 06:30:51;;;;;;;8.77;8.17;;;;;;;;;;5027783;28;20247;-55
2024/02/09 06:33:19;;;;;;;5.60;4.80;;;;;;;;;;5019601;28;20267;-55
2024/02/09 06:35:45;;;;;;;4.53;3.93;;;;;;;;;;5022434;28;20722;-56
2024/02/09 06:38:11;;;;;;;9.73;8.93;;;;;;;;;;5024176;28;20653;-54
2024/02/09 06:40:41;;;;;;;7.83;7.07;;;;;;;;;;5031505;28;20205;-55
2024/02/09 06:43:07;;;;;;;9.53;8.83;;;;;;;;;;5020033;28;20206;-54
2024/02/09 06:45:36;;;;;;;8.70;8.00;;;;;;;;;;5019999;28;20381;-54
2024/02/09 06:48:03;;;;;;;12.00;11.27;;;;;;;;;;5018000;28;20514;-56
2024/02/09 06:50:29;;;;;;;8.07;7.33;;;;;;;;;;5018137;28;20216;-57
2024/02/09 06:52:55;;;;;;;20.30;19.07;;;;;;;;;;5017975;28;20178;-58
2024/02/09 06:55:22;;;;;;;16.77;15.57;;;;;;;;;;5025290;28;20236;-58
2024/02/09 06:57:48;;;;;;;6.73;6.10;;;;;;;;;;5019700;28;20204;-58
2024/02/09 07:00:15;;;;;;;13.93;13.10;;;;;;;;;;5017979;28;20205;-59
2024/02/09 07:02:41;;;;;;;13.37;12.47;;;;;;;;;;5022552;28;20176;-60
2024/02/09 07:05:10;;;;;;;3.50;2.93;;;;;;;;;;5017156;28;20163;-57
2024/02/09 07:07:39;;;;;;;4.67;4.27;;;;;;;;;;5025776;28;20677;-61
2024/02/09 07:10:05;;;;;;;11.13;10.23;;;;;;;;;;5024602;28;20178;-61
2024/02/09 07:12:31;;;;;;;14.20;13.27;;;;;;;;;;5024698;28;20181;-58
2024/02/09 07:14:58;;;;;;;7.80;7.10;;;;;;;;;;5024458;28;20182;-58
2024/02/09 07:17:25;;;;;;;14.73;13.77;;;;;;;;;;5015078;28;20193;-60
2024/02/09 07:19:51;;;;;;;10.97;10.20;;;;;;;;;;5024398;28;20287;-60
2024/02/09 07:22:17;;;;;;;3.53;3.07;;;;;;;;;;5014447;28;20601;-60
2024/02/09 07:24:43;;;;;;;13.43;12.70;;;;;;;;;;5019669;28;20189;-59
2024/02/09 07:27:09;;;;;;;7.30;5.97;;;;;;;;;;5017591;28;20229;-59
2024/02/09 07:29:35;;;;;;;7.03;3.47;;;;;;;;;;5023979;28;20182;-60
2024/02/09 07:32:01;;;;;;;4.43;2.60;;;;;;;;;;5024174;28;20264;-60
2024/02/09 07:34:27;;;;;;;3.23;3.00;;;;;;;;;;5023034;28;20643;-59
2024/02/09 07:36:54;;;;;;;9.87;8.93;;;;;;;;;;5019874;28;20186;-59
2024/02/09 07:39:20;;;;;;;5.13;3.10;;;;;;;;;;5018161;28;20180;-58
2024/02/09 07:41:46;;;;;;;8.20;7.57;;;;;;;;;;5025915;28;20297;-59
2024/02/09 07:44:12;;;;;;;9.57;7.70;;;;;;;;;;5026144;28;20350;-60
2024/02/09 07:46:38;;;;;;;6.53;6.03;;;;;;;;;;5020767;28;20363;-60
2024/02/09 07:49:04;;;;;;;4.10;2.43;;;;;;;;;;5016735;28;20650;-59
2024/02/09 07:51:30;;;;;;;25.00;23.43;;;;;;;;;;5025779;28;20609;-59
2024/02/09 07:53:57;;;;;;;6.83;6.33;;;;;;;;;;5026274;28;20304;-59
2024/02/09 07:56:23;;;;;;;31.70;30.17;;;;;;;;;;5019039;28;20544;-60
2024/02/09 07:58:50;;;;;;;13.53;12.63;;;;;;;;;;5026256;28;20271;-59
2024/02/09 08:01:21;;;;;;;12.60;11.60;;;;;;;;;;5026135;28;20193;-55
2024/02/09 08:03:47;;;;;;;3.07;2.37;;;;;;;;;;5026463;28;20183;-55
2024/02/09 08:06:13;;;;;;;5.33;2.63;;;;;;;;;;5025345;28;20622;-55
2024/02/09 08:08:39;;;;;;;3.93;3.43;;;;;;;;;;5025061;28;20189;-55
2024/02/09 08:11:05;;;;;;;4.97;3.27;;;;;;;;;;5025972;28;20173;-55
2024/02/09 08:13:31;;;;;;;4.93;3.50;;;;;;;;;;5018152;28;20170;-55
2024/02/09 08:15:57;;;;;;;3.90;2.60;;;;;;;;;;5026212;28;20597;-55
2024/02/09 08:18:23;;;;;;;5.87;4.10;;;;;;;;;;5022342;28;20312;-55
2024/02/09 08:20:49;;;;;;;4.33;3.90;;;;;;;;;;5026718;28;20193;-55
2024/02/09 08:23:15;;;;;;;5.03;4.27;;;;;;;;;;5025338;28;20178;-55
2024/02/09 08:25:41;;;;;;;3.53;3.23;;;;;;;;;;5026281;28;20289;-54
2024/02/09 08:28:07;;;;;;;11.03;9.60;;;;;;;;;;5027813;28;20900;-58
2024/02/09 08:30:33;;;;;;;5.97;5.37;;;;;;;;;;5030548;28;20177;-58
2024/02/09 08:33:00;;;;;;;9.30;8.60;;;;;;;;;;5025656;28;20551;-58
2024/02/09 08:35:26;;;;;;;5.43;2.93;;;;;;;;;;5033063;28;20204;-57
2024/02/09 08:37:52;;;;;;;4.10;2.80;;;;;;;;;;5026609;28;20220;-58
2024/02/09 08:40:18;;;;;;;4.33;3.40;;;;;;;;;;5028105;28;20185;-58
2024/02/09 08:42:44;;;;;;;4.93;3.67;;;;;;;;;;5026540;28;20206;-59
2024/02/09 08:45:10;;;;;;;7.53;4.13;;;;;;;;;;5025590;28;20173;-58
2024/02/09 08:47:36;;;;;;;4.17;3.77;;;;;;;;;;5025916;28;20270;-59
2024/02/09 08:50:07;;;;;;;4.87;3.40;;;;;;;;;;5027507;28;20184;-59
2024/02/09 08:52:33;;;;;;;5.07;3.73;;;;;;;;;;5031716;28;20272;-59
2024/02/09 08:55:01;;;;;;;6.47;3.93;;;;;;;;;;5033581;28;20253;-59
2024/02/09 08:57:27;;;;;;;8.07;7.37;;;;;;;;;;5030019;28;20182;-58
2024/02/09 08:59:53;;;;;;;6.53;3.43;;;;;;;;;;5022207;28;20178;-58
2024/02/09 09:02:19;;;;;;;13.80;12.90;;;;;;;;;;5026796;28;20268;-54
2024/02/09 09:04:45;;;;;;;6.70;5.80;;;;;;;;;;5021914;28;20535;-52
2024/02/09 09:07:12;;;;;;;9.23;8.43;;;;;;;;;;5027101;28;20537;-53
2024/02/09 09:09:38;;;;;;;13.40;10.43;;;;;;;;;;5027773;28;20181;-53
2024/02/09 09:12:04;;;;;;;7.87;7.17;;;;;;;;;;5029375;28;20589;-52
2024/02/09 09:14:34;;;;;;;5.97;4.10;;;;;;;;;;5028413;28;20577;-53
2024/02/09 09:17:00;;;;;;;7.80;6.73;;;;;;;;;;5025926;28;20637;-54
2024/02/09 09:19:26;;;;;;;5.90;4.17;;;;;;;;;;5026155;28;20221;-53
2024/02/09 09:21:52;;;;;;;8.43;7.83;;;;;;;;;;5028676;28;20174;-52
2024/02/09 09:24:19;;;;;;;3.73;3.30;;;;;;;;;;5026985;28;20613;-52
2024/02/09 09:26:45;;;;;;;7.30;3.30;;;;;;;;;;5027691;28;20202;-53
2024/02/09 09:29:12;;;;;;;6.80;5.07;;;;;;;;;;5024085;28;20182;-52
2024/02/09 09:31:39;;;;;;;7.13;6.30;;;;;;;;;;5024268;28;20617;-52
2024/02/09 09:34:05;;;;;;;5.40;3.17;;;;;;;;;;5023501;28;20598;-53
2024/02/09 09:36:31;;;;;;;7.60;5.30;;;;;;;;;;5029030;28;20275;-54
2024/02/09 09:38:57;;;;;;;12.17;11.00;;;;;;;;;;5020127;28;20231;-53
2024/02/09 09:41:23;;;;;;;12.40;11.23;;;;;;;;;;5023071;28;20719;-54
2024/02/09 09:43:50;;;;;;;6.17;5.53;;;;;;;;;;5026586;28;20304;-54
2024/02/09 09:46:21;;;;;;;5.90;4.67;;;;;;;;;;5016549;28;20929;-53
2024/02/09 09:48:47;;;;;;;6.70;3.73;;;;;;;;;;5024886;28;20682;-53
2024/02/09 09:51:13;;;;;;;8.40;4.13;;;;;;;;;;5026707;28;20331;-53
2024/02/09 09:53:42;;;;;;;8.47;5.37;;;;;;;;;;5024803;28;20185;-54
2024/02/09 09:56:09;;;;;;;5.80;5.20;;;;;;;;;;5027443;28;20189;-52
2024/02/09 09:58:35;;;;;;;8.73;8.03;;;;;;;;;;5028212;28;20642;-56
2024/02/09 10:01:09;;;;;;;25.30;10.47;;;;;;;;;;5027988;28;20706;-52
2024/02/09 10:03:38;;;;;;;14.87;6.50;;;;;;;;;;5030619;28;20186;-53
2024/02/09 10:06:05;;;;;;;38.10;7.80;;;;;;;;;;5021076;28;20296;-52
2024/02/09 10:08:35;;;;;;;17.93;8.30;;;;;;;;;;5028419;28;20603;-53
2024/02/09 10:11:01;;;;;;;17.00;5.03;;;;;;;;;;5027661;28;20188;-53
2024/02/09 10:13:28;;;;;;;12.80;10.30;;;;;;;;;;5024784;28;20220;-51
2024/02/09 10:15:55;;;;;;;10.60;3.23;;;;;;;;;;5028005;28;20672;-53
2024/02/09 10:18:21;;;;;;;15.73;14.67;;;;;;;;;;5026980;28;20736;-52
2024/02/09 10:20:48;;;;;;;5.70;5.07;;;;;;;;;;5025686;28;20186;-52
2024/02/09 10:23:17;;;;;;;8.97;6.70;;;;;;;;;;5023343;28;20205;-54
2024/02/09 10:25:43;;;;;;;7.17;3.40;;;;;;;;;;5028778;28;20212;-52
2024/02/09 10:28:11;;;;;;;7.40;4.43;;;;;;;;;;5026144;28;20205;-54
2024/02/09 10:30:37;;;;;;;5.33;3.37;;;;;;;;;;5027607;28;20243;-52
2024/02/09 10:33:03;;;;;;;6.67;4.20;;;;;;;;;;5025273;28;20174;-52
2024/02/09 10:35:30;;;;;;;6.57;2.87;;;;;;;;;;5028350;28;20703;-53
2024/02/09 10:37:57;;;;;;;7.00;4.40;;;;;;;;;;5030353;28;20212;-54
2024/02/09 10:40:24;;;;;;;5.13;3.37;;;;;;;;;;5026108;28;20445;-52
2024/02/09 10:42:51;;;;;;;6.23;4.13;;;;;;;;;;5019068;28;20567;-53
2024/02/09 10:45:17;;;;;;;3.00;2.47;;;;;;;;;;5023510;28;20193;-54
2024/02/09 10:47:45;;;;;;;4.23;3.30;;;;;;;;;;5023340;28;20301;-53
2024/02/09 10:50:12;;;;;;;3.87;2.53;;;;;;;;;;5020769;28;20650;-53
2024/02/09 10:52:42;;;;;;;3.33;2.50;;;;;;;;;;5018922;28;20186;-53
2024/02/09 10:55:09;;;;;;;3.77;2.90;;;;;;;;;;5023777;28;20659;-53
2024/02/09 10:57:35;;;;;;;6.17;2.23;;;;;;;;;;5024102;28;20645;-52
2024/02/09 11:00:03;;;;;;;5.40;2.13;;;;;;;;;;5023903;28;20182;-54
2024/02/09 11:02:35;;;;;;;3.83;2.13;;;;;;;;;;5023770;28;20178;-54
2024/02/09 11:05:03;;;;;;;5.53;4.93;;;;;;;;;;5025783;28;20174;-54
2024/02/09 11:07:29;;;;;;;3.27;2.50;;;;;;;;;;5022412;28;20560;-54
2024/02/09 11:09:55;;;;;;;5.70;2.27;;;;;;;;;;5026124;28;20303;-53
2024/02/09 11:12:21;;;;;;;6.10;2.37;;;;;;;;;;5024343;28;20190;-54
2024/02/09 11:14:47;;;;;;;5.80;3.80;;;;;;;;;;5016325;28;20240;-52
2024/02/09 11:17:18;;;;;;;2.43;1.83;;;;;;;;;;5023902;28;20193;-52
2024/02/09 11:19:44;;;;;;;3.20;2.57;;;;;;;;;;5024736;28;21061;-52
2024/02/09 11:22:11;;;;;;;2.83;2.00;;;;;;;;;;5021433;28;20179;-53
2024/02/09 11:24:37;;;;;;;3.27;2.07;;;;;;;;;;5024213;28;20220;-55
2024/02/09 11:27:04;;;;;;;4.00;2.27;;;;;;;;;;5027038;28;20292;-55
2024/02/09 11:29:32;;;;;;;2.80;1.90;;;;;;;;;;5022744;28;20178;-55
2024/02/09 11:32:02;;;;;;;5.20;2.57;;;;;;;;;;5027664;28;20174;-55
2024/02/09 11:34:28;;;;;;;2.93;2.33;;;;;;;;;;5018146;28;20174;-55
2024/02/09 11:37:01;;;;;;;3.97;2.43;;;;;;;;;;5024191;28;20174;-55
2024/02/09 11:39:28;;;;;;;4.97;2.07;;;;;;;;;;5023529;28;20645;-55
2024/02/09 11:41:54;;;;;;;3.60;2.80;;;;;;;;;;5019864;28;20642;-55
2024/02/09 11:44:21;;;;;;;3.20;2.20;;;;;;;;;;5026812;28;20541;-55
2024/02/09 11:46:48;;;;;;;4.07;2.17;;;;;;;;;;5027452;28;20204;-55
2024/02/09 11:49:14;;;;;;;3.30;2.43;;;;;;;;;;5024010;28;20682;-55
2024/02/09 11:51:40;;;;;;;3.33;2.23;;;;;;;;;;5026047;28;20189;-54
2024/02/09 11:54:10;;;;;;;5.03;4.57;;;;;;;;;;5022715;28;20174;-55
2024/02/09 11:56:36;;;;;;;3.50;2.70;;;;;;;;;;5018209;28;20209;-55
2024/02/09 11:59:05;;;;;;;3.60;2.73;;;;;;;;;;5020930;28;20197;-55
2024/02/09 12:01:32;;;;;;;4.17;2.20;;;;;;;;;;5016475;28;20650;-55
2024/02/09 12:03:59;;;;;;;4.13;3.80;;;;;;;;;;5016789;28;20664;-55
2024/02/09 12:06:27;;;;;;;2.80;2.40;;;;;;;;;;5025642;28;20296;-55
2024/02/09 12:08:53;;;;;;;2.27;2.07;;;;;;;;;;5025364;28;20655;-55
2024/02/09 12:11:20;;;;;;;2.90;2.40;;;;;;;;;;5027018;28;20181;-55
2024/02/09 12:13:50;;;;;;;3.53;2.20;;;;;;;;;;5026239;28;20579;-54
2024/02/09 12:16:19;;;;;;;2.40;2.20;;;;;;;;;;5025742;28;20185;-54
2024/02/09 12:18:46;;;;;;;2.70;2.33;;;;;;;;;;5017544;28;20512;-55
2024/02/09 12:21:12;;;;;;;6.43;3.10;;;;;;;;;;5025550;28;20174;-55
2024/02/09 12:23:38;;;;;;;6.43;4.13;;;;;;;;;;5023979;28;20677;-54
2024/02/09 12:26:08;;;;;;;3.17;2.73;;;;;;;;;;5031080;28;20221;-55
2024/02/09 12:28:35;;;;;;;3.53;1.90;;;;;;;;;;5022804;28;20220;-55
2024/02/09 12:31:04;;;;;;;2.77;2.20;;;;;;;;;;5028657;28;20249;-55
2024/02/09 12:33:30;;;;;;;4.00;2.20;;;;;;;;;;5029296;28;20566;-57
2024/02/09 12:36:04;;;;;;;3.30;2.07;;;;;;;;;;5028015;28;20183;-56
2024/02/09 12:38:31;;;;;;;2.37;2.13;;;;;;;;;;5027146;28;20182;-56
2024/02/09 12:40:57;;;;;;;3.30;2.20;;;;;;;;;;5029939;28;20178;-57
2024/02/09 12:43:23;;;;;;;3.80;3.10;;;;;;;;;;5029229;28;20675;-56
2024/02/09 12:45:49;;;;;;;3.43;2.23;;;;;;;;;;5029545;28;20229;-56
2024/02/09 12:48:20;;;;;;;2.93;2.67;;;;;;;;;;5027777;28;20190;-57
2024/02/09 12:50:46;;;;;;;2.67;2.00;;;;;;;;;;5029330;28;20202;-56
2024/02/09 12:53:14;;;;;;;3.13;2.00;;;;;;;;;;5028344;28;20224;-57
2024/02/09 12:55:40;;;;;;;4.03;1.90;;;;;;;;;;5029099;28;20201;-57
2024/02/09 12:58:09;;;;;;;2.90;2.23;;;;;;;;;;5029521;28;20165;-57
2024/02/09 13:00:35;;;;;;;3.30;1.93;;;;;;;;;;5025583;28;20569;-57
2024/02/09 13:03:01;;;;;;;4.13;3.27;;;;;;;;;;5022675;28;20169;-56
2024/02/09 13:05:30;;;;;;;4.33;1.90;;;;;;;;;;5028530;28;20643;-57
2024/02/09 13:07:58;;;;;;;4.13;2.10;;;;;;;;;;5024622;28;20184;-56
2024/02/09 13:10:24;;;;;;;2.73;2.33;;;;;;;;;;5028749;28;20174;-56
2024/02/09 13:12:52;;;;;;;3.77;1.80;;;;;;;;;;5028570;28;20654;-56
2024/02/09 13:15:19;;;;;;;5.33;1.70;;;;;;;;;;5023722;28;20208;-56
2024/02/09 13:17:45;;;;;;;3.30;2.20;;;;;;;;;;5028316;28;20675;-57
2024/02/09 13:20:12;;;;;;;3.23;2.23;;;;;;;;;;5029053;28;20171;-57
2024/02/09 13:22:38;;;;;;;3.17;1.87;;;;;;;;;;5030425;28;20195;-57
2024/02/09 13:25:05;;;;;;;2.37;2.13;;;;;;;;;;5028011;28;20178;-57
2024/02/09 13:27:31;;;;;;;2.73;2.10;;;;;;;;;;5029163;28;20670;-56
2024/02/09 13:29:57;;;;;;;3.13;1.87;;;;;;;;;;5024947;28;20199;-57
2024/02/09 13:32:26;;;;;;;3.93;2.27;;;;;;;;;;5025520;28;20185;-57
2024/02/09 13:34:52;;;;;;;2.27;1.90;;;;;;;;;;5023745;28;20216;-57
2024/02/09 13:37:18;;;;;;;2.53;1.90;;;;;;;;;;5024610;28;20188;-57
2024/02/09 13:39:44;;;;;;;2.83;2.50;;;;;;;;;;5026193;28;20430;-57
2024/02/09 13:42:10;;;;;;;2.77;2.00;;;;;;;;;;5028600;28;20206;-57
2024/02/09 13:44:37;;;;;;;2.63;2.23;;;;;;;;;;5026888;28;20658;-63
2024/02/09 13:47:04;;;;;;;4.37;2.03;;;;;;;;;;5027841;28;20206;-63
2024/02/09 13:49:30;;;;;;;3.50;2.23;;;;;;;;;;5021207;28;20265;-65
2024/02/09 13:51:57;;;;;;;3.23;2.00;;;;;;;;;;5029714;28;20616;-65
2024/02/09 13:54:23;;;;;;;2.63;2.00;;;;;;;;;;5027814;28;20615;-65
2024/02/09 13:56:50;;;;;;;3.33;1.90;;;;;;;;;;5025048;28;20316;-63
2024/02/09 13:59:16;;;;;;;3.20;2.60;;;;;;;;;;5025549;28;20186;-61
2024/02/09 14:01:43;;;;;;;2.50;2.30;;;;;;;;;;5023285;28;20178;-65
2024/02/09 14:04:09;;;;;;;4.97;2.90;;;;;;;;;;5022884;28;20185;-65
2024/02/09 14:06:35;;;;;;;2.50;2.13;;;;;;;;;;5020592;28;20607;-64
2024/02/09 14:09:01;;;;;;;5.13;2.40;;;;;;;;;;5024245;28;20205;-63
2024/02/09 14:11:28;;;;;;;2.83;2.13;;;;;;;;;;5029237;28;20591;-64
2024/02/09 14:13:54;;;;;;;3.17;2.30;;;;;;;;;;5028153;28;20312;-65
2024/02/09 14:16:20;;;;;;;4.03;2.30;;;;;;;;;;5034064;28;20178;-65
2024/02/09 14:18:47;;;;;;;3.23;2.00;;;;;;;;;;5028636;28;20232;-62
2024/02/09 14:21:13;;;;;;;4.40;2.10;;;;;;;;;;5028482;28;20178;-62
2024/02/09 14:23:39;;;;;;;5.60;2.27;;;;;;;;;;5026179;28;20182;-62
2024/02/09 14:26:06;;;;;;;2.80;2.23;;;;;;;;;;5028892;28;20586;-64
2024/02/09 14:28:32;;;;;;;4.37;1.93;;;;;;;;;;5026309;28;20196;-64
2024/02/09 14:31:00;;;;;;;4.17;2.30;;;;;;;;;;5027272;28;20182;-65
2024/02/09 14:33:26;;;;;;;9.17;2.57;;;;;;;;;;5026036;28;20188;-65
2024/02/09 14:35:53;;;;;;;2.00;1.80;;;;;;;;;;5028608;28;20174;-65
2024/02/09 14:38:19;;;;;;;2.23;1.97;;;;;;;;;;5023088;28;20209;-59
2024/02/09 14:40:45;;;;;;;3.50;1.90;;;;;;;;;;5017271;28;20233;-64
2024/02/09 14:43:11;;;;;;;6.17;2.30;;;;;;;;;;5021881;28;20238;-63
2024/02/09 14:45:38;;;;;;;4.03;2.33;;;;;;;;;;5025595;28;20252;-63
2024/02/09 14:48:07;;;;;;;2.57;2.37;;;;;;;;;;5022993;28;20193;-63
2024/02/09 14:50:33;;;;;;;2.77;2.33;;;;;;;;;;5022675;28;20167;-52
2024/02/09 14:53:00;;;;;;;4.83;2.90;;;;;;;;;;5019512;28;20179;-54
2024/02/09 14:55:29;;;;;;;5.73;2.10;;;;;;;;;;5020323;28;20269;-64
2024/02/09 14:58:01;;;;;;;2.20;1.83;;;;;;;;;;5019007;28;20174;-63
2024/02/09 15:00:29;;;;;;;3.23;2.27;;;;;;;;;;5016661;28;20178;-61
2024/02/09 15:02:55;;;;;;;2.63;2.30;;;;;;;;;;5020325;28;20193;-59
2024/02/09 15:05:23;;;;;;;4.30;3.00;;;;;;;;;;5026807;28;20181;-62
2024/02/09 15:07:50;;;;;;;6.20;2.80;;;;;;;;;;5025780;28;20209;-59
2024/02/09 15:10:16;;;;;;;5.10;2.30;;;;;;;;;;5020679;28;20273;-64
2024/02/09 15:12:43;;;;;;;4.67;2.00;;;;;;;;;;5021033;28;20288;-63
2024/02/09 15:15:09;;;;;;;4.40;3.27;;;;;;;;;;5029262;28;20186;-59
2024/02/09 15:17:36;;;;;;;4.60;3.37;;;;;;;;;;5021166;28;20612;-63
2024/02/09 15:20:02;;;;;;;6.23;2.70;;;;;;;;;;5018082;28;20189;-62
2024/02/09 15:22:28;;;;;;;4.67;2.87;;;;;;;;;;5017761;28;20174;-60
2024/02/09 15:24:55;;;;;;;10.50;3.37;;;;;;;;;;5020596;28;20213;-63
2024/02/09 15:27:21;;;;;;;3.77;2.73;;;;;;;;;;5019082;28;20213;-63
2024/02/09 15:29:47;;;;;;;4.83;2.10;;;;;;;;;;5022587;28;20702;-60
2024/02/09 15:32:13;;;;;;;4.47;2.07;;;;;;;;;;5023934;28;20566;-61
2024/02/09 15:34:43;;;;;;;5.40;1.97;;;;;;;;;;5022767;28;20266;-61
2024/02/09 15:37:10;;;;;;;3.07;2.27;;;;;;;;;;5021335;28;20178;-62
2024/02/09 15:39:36;;;;;;;3.13;2.30;;;;;;;;;;5015335;28;20182;-61
2024/02/09 15:42:03;;;;;;;6.03;5.43;;;;;;;;;;5023344;28;20409;-63
2024/02/09 15:44:30;;;;;;;10.83;9.87;;;;;;;;;;5018553;28;20178;-64
2024/02/09 15:46:56;;;;;;;7.43;6.80;;;;;;;;;;5024811;28;20217;-64
2024/02/09 15:49:23;;;;;;;6.57;6.07;;;;;;;;;;5023052;28;20205;-62
2024/02/09 15:51:49;;;;;;;4.30;3.57;;;;;;;;;;5018809;28;20181;-63
2024/02/09 15:54:15;;;;;;;7.87;5.03;;;;;;;;;;5021059;28;20305;-64
2024/02/09 15:56:41;;;;;;;5.00;3.00;;;;;;;;;;5023634;28;20771;-63
2024/02/09 15:59:08;;;;;;;4.83;3.93;;;;;;;;;;5022628;28;20603;-58
2024/02/09 16:01:34;;;;;;;4.47;4.17;;;;;;;;;;5024693;28;20201;-64
2024/02/09 16:04:00;;;;;;;3.90;3.47;;;;;;;;;;5027678;28;20174;-55
2024/02/09 16:06:27;;;;;;;7.23;6.73;;;;;;;;;;5025029;28;20204;-55
2024/02/09 16:08:54;;;;;;;3.33;3.13;;;;;;;;;;5027907;28;20185;-55
2024/02/09 16:11:20;;;;;;;8.03;7.33;;;;;;;;;;5024124;28;20162;-55
2024/02/09 16:13:47;;;;;;;9.37;8.77;;;;;;;;;;5028609;28;20721;-56
2024/02/09 16:16:13;;;;;;;10.33;9.43;;;;;;;;;;5030973;28;20226;-55
2024/02/09 16:18:42;;;;;;;6.10;5.60;;;;;;;;;;5028910;28;20222;-55
2024/02/09 16:21:17;;;;;;;4.07;3.77;;;;;;;;;;5028446;28;20579;-55
2024/02/09 16:23:45;;;;;;;4.53;3.80;;;;;;;;;;5024292;28;20282;-55
2024/02/09 16:26:11;;;;;;;4.83;4.53;;;;;;;;;;5029740;28;20958;-55